sensor_id;sensor_type;location;lat;lon;timestamp;pressure;altitude;pressure_sealevel;temperature;humidity
21555;BME280;10938;44.794;-0.676;2023-02-12T00:00:29;102696.31;;;8.19;72.47
21555;BME280;10938;44.794;-0.676;2023-02-12T00:02:55;102698.91;;;8.19;72.89
21555;BME280;10938;44.794;-0.676;2023-02-12T00:05:20;102697.28;;;8.21;72.94
21555;BME280;10938;44.794;-0.676;2023-02-12T00:07:45;102694.34;;;8.15;72.82
21555;BME280;10938;44.794;-0.676;2023-02-12T00:10:11;102695.31;;;8.17;72.96
21555;BME280;10938;44.794;-0.676;2023-02-12T00:12:37;102694.50;;;8.18;72.69
21555;BME280;10938;44.794;-0.676;2023-02-12T00:15:02;102698.91;;;8.19;72.78
21555;BME280;10938;44.794;-0.676;2023-02-12T00:17:28;102697.88;;;8.01;74.62
21555;BME280;10938;44.794;-0.676;2023-02-12T00:19:53;102695.88;;;7.96;74.75
21555;BME280;10938;44.794;-0.676;2023-02-12T00:22:18;102705.50;;;7.98;74.75
21555;BME280;10938;44.794;-0.676;2023-02-12T00:24:44;102697.72;;;7.98;74.99
21555;BME280;10938;44.794;-0.676;2023-02-12T00:27:09;102685.03;;;7.88;75.63
21555;BME280;10938;44.794;-0.676;2023-02-12T00:29:36;102700.88;;;7.93;76.17
21555;BME280;10938;44.794;-0.676;2023-02-12T00:32:01;102699.34;;;7.96;75.34
21555;BME280;10938;44.794;-0.676;2023-02-12T00:34:26;102698.28;;;7.93;75.98
21555;BME280;10938;44.794;-0.676;2023-02-12T00:36:52;102689.88;;;7.97;74.59
21555;BME280;10938;44.794;-0.676;2023-02-12T00:39:17;102694.16;;;7.96;74.84
21555;BME280;10938;44.794;-0.676;2023-02-12T00:41:43;102693.09;;;7.93;74.74
21555;BME280;10938;44.794;-0.676;2023-02-12T00:44:08;102690.00;;;7.84;75.90
21555;BME280;10938;44.794;-0.676;2023-02-12T00:46:33;102689.41;;;7.73;76.37
21555;BME280;10938;44.794;-0.676;2023-02-12T00:48:59;102686.63;;;7.70;77.45
21555;BME280;10938;44.794;-0.676;2023-02-12T00:51:24;102685.19;;;7.75;76.90
21555;BME280;10938;44.794;-0.676;2023-02-12T00:53:49;102682.41;;;7.72;77.23
21555;BME280;10938;44.794;-0.676;2023-02-12T00:56:15;102686.63;;;7.70;78.13
21555;BME280;10938;44.794;-0.676;2023-02-12T00:58:40;102676.59;;;7.76;77.28
21555;BME280;10938;44.794;-0.676;2023-02-12T01:01:06;102677.72;;;7.81;76.83
21555;BME280;10938;44.794;-0.676;2023-02-12T01:03:32;102680.16;;;7.78;76.35
21555;BME280;10938;44.794;-0.676;2023-02-12T01:05:57;102682.34;;;7.70;77.22
21555;BME280;10938;44.794;-0.676;2023-02-12T01:08:22;102679.66;;;7.69;77.36
21555;BME280;10938;44.794;-0.676;2023-02-12T01:10:56;102678.84;;;7.70;77.32
21555;BME280;10938;44.794;-0.676;2023-02-12T01:13:22;102674.28;;;7.66;77.30
21555;BME280;10938;44.794;-0.676;2023-02-12T01:15:49;102669.25;;;7.69;76.76
21555;BME280;10938;44.794;-0.676;2023-02-12T01:18:24;102674.28;;;7.66;77.01
21555;BME280;10938;44.794;-0.676;2023-02-12T01:20:50;102674.66;;;7.57;78.12
21555;BME280;10938;44.794;-0.676;2023-02-12T01:23:15;102680.22;;;7.49;79.48
21555;BME280;10938;44.794;-0.676;2023-02-12T01:25:41;102685.41;;;7.49;79.31
21555;BME280;10938;44.794;-0.676;2023-02-12T01:28:06;102683.78;;;7.51;79.31
21555;BME280;10938;44.794;-0.676;2023-02-12T01:30:31;102677.91;;;7.53;78.57
21555;BME280;10938;44.794;-0.676;2023-02-12T01:32:57;102681.47;;;7.55;78.58
21555;BME280;10938;44.794;-0.676;2023-02-12T01:35:22;102671.25;;;7.58;79.17
21555;BME280;10938;44.794;-0.676;2023-02-12T01:37:47;102679.03;;;7.58;78.73
21555;BME280;10938;44.794;-0.676;2023-02-12T01:40:14;102665.16;;;7.58;77.79
21555;BME280;10938;44.794;-0.676;2023-02-12T01:42:41;102661.78;;;7.59;77.27
21555;BME280;10938;44.794;-0.676;2023-02-12T01:47:39;102672.59;;;7.52;77.89
21555;BME280;10938;44.794;-0.676;2023-02-12T01:50:06;102667.97;;;7.46;78.10
21555;BME280;10938;44.794;-0.676;2023-02-12T01:52:35;102670.63;;;7.48;78.29
21555;BME280;10938;44.794;-0.676;2023-02-12T01:55:04;102674.94;;;7.47;78.40
21555;BME280;10938;44.794;-0.676;2023-02-12T01:57:33;102672.16;;;7.44;79.50
21555;BME280;10938;44.794;-0.676;2023-02-12T02:00:03;102675.03;;;7.49;79.37
21555;BME280;10938;44.794;-0.676;2023-02-12T02:05:35;102674.25;;;7.50;79.32
21555;BME280;10938;44.794;-0.676;2023-02-12T02:08:03;102674.75;;;7.44;78.94
21555;BME280;10938;44.794;-0.676;2023-02-12T02:10:29;102677.19;;;7.41;79.69
21555;BME280;10938;44.794;-0.676;2023-02-12T02:12:55;102662.34;;;7.39;79.96
21555;BME280;10938;44.794;-0.676;2023-02-12T02:15:42;102667.88;;;7.45;79.63
21555;BME280;10938;44.794;-0.676;2023-02-12T02:24:20;102677.50;;;7.16;80.47
21555;BME280;10938;44.794;-0.676;2023-02-12T02:29:31;102668.47;;;7.10;83.56
21555;BME280;10938;44.794;-0.676;2023-02-12T02:32:06;102656.84;;;7.03;83.85
21555;BME280;10938;44.794;-0.676;2023-02-12T02:34:45;102663.19;;;7.08;82.61
21555;BME280;10938;44.794;-0.676;2023-02-12T02:37:28;102660.75;;;7.11;82.29
21555;BME280;10938;44.794;-0.676;2023-02-12T02:39:59;102653.81;;;7.10;82.04
21555;BME280;10938;44.794;-0.676;2023-02-12T02:42:39;102658.28;;;7.13;80.93
21555;BME280;10938;44.794;-0.676;2023-02-12T02:45:14;102651.38;;;7.13;80.75
21555;BME280;10938;44.794;-0.676;2023-02-12T02:47:59;102656.19;;;7.07;82.19
21555;BME280;10938;44.794;-0.676;2023-02-12T02:50:28;102648.06;;;7.01;81.47
21555;BME280;10938;44.794;-0.676;2023-02-12T02:53:01;102651.66;;;7.03;81.58
21555;BME280;10938;44.794;-0.676;2023-02-12T02:55:32;102649.69;;;6.99;82.22
21555;BME280;10938;44.794;-0.676;2023-02-12T02:58:38;102658.88;;;6.94;82.33
21555;BME280;10938;44.794;-0.676;2023-02-12T03:01:10;102650.84;;;6.90;82.63
21555;BME280;10938;44.794;-0.676;2023-02-12T03:03:51;102645.22;;;6.82;84.00
21555;BME280;10938;44.794;-0.676;2023-02-12T03:06:27;102645.50;;;6.87;82.88
21555;BME280;10938;44.794;-0.676;2023-02-12T03:09:03;102640.19;;;6.85;83.12
21555;BME280;10938;44.794;-0.676;2023-02-12T03:11:32;102643.59;;;6.84;82.63
21555;BME280;10938;44.794;-0.676;2023-02-12T03:16:39;102640.19;;;6.85;82.99
21555;BME280;10938;44.794;-0.676;2023-02-12T03:19:18;102632.06;;;6.79;82.67
21555;BME280;10938;44.794;-0.676;2023-02-12T03:21:49;102635.38;;;6.77;82.11
21555;BME280;10938;44.794;-0.676;2023-02-12T03:26:59;102632.63;;;6.73;82.23
21555;BME280;10938;44.794;-0.676;2023-02-12T03:29:28;102630.63;;;6.69;81.74
21555;BME280;10938;44.794;-0.676;2023-02-12T03:35:11;102627.22;;;6.70;82.08
21555;BME280;10938;44.794;-0.676;2023-02-12T03:40:19;102632.03;;;6.64;82.11
21555;BME280;10938;44.794;-0.676;2023-02-12T03:42:54;102633.31;;;6.56;82.73
21555;BME280;10938;44.794;-0.676;2023-02-12T03:45:39;102638.31;;;6.53;84.05
21555;BME280;10938;44.794;-0.676;2023-02-12T03:48:21;102647.84;;;6.40;84.69
21555;BME280;10938;44.794;-0.676;2023-02-12T03:51:00;102639.66;;;6.47;84.38
21555;BME280;10938;44.794;-0.676;2023-02-12T03:53:28;102646.78;;;6.51;83.32
21555;BME280;10938;44.794;-0.676;2023-02-12T03:56:03;102648.56;;;6.52;82.98
21555;BME280;10938;44.794;-0.676;2023-02-12T03:58:32;102653.38;;;6.46;83.27
21555;BME280;10938;44.794;-0.676;2023-02-12T04:00:59;102656.22;;;6.36;83.97
21555;BME280;10938;44.794;-0.676;2023-02-12T04:03:24;102661.94;;;6.30;84.16
21555;BME280;10938;44.794;-0.676;2023-02-12T04:05:50;102658.88;;;6.22;85.08
21555;BME280;10938;44.794;-0.676;2023-02-12T04:08:15;102657.66;;;6.17;85.92
21555;BME280;10938;44.794;-0.676;2023-02-12T04:16:11;102649.66;;;6.28;84.73
21555;BME280;10938;44.794;-0.676;2023-02-12T04:18:42;102658.06;;;6.24;85.45
21555;BME280;10938;44.794;-0.676;2023-02-12T04:21:17;102658.53;;;6.31;84.88
21555;BME280;10938;44.794;-0.676;2023-02-12T04:33:54;102663.53;;;6.00;89.09
21555;BME280;10938;44.794;-0.676;2023-02-12T04:36:25;102664.38;;;6.01;88.20
21555;BME280;10938;44.794;-0.676;2023-02-12T04:38:58;102670.16;;;6.10;88.22
21555;BME280;10938;44.794;-0.676;2023-02-12T04:41:25;102670.97;;;6.09;86.81
21555;BME280;10938;44.794;-0.676;2023-02-12T04:43:51;102670.97;;;6.09;85.83
21555;BME280;10938;44.794;-0.676;2023-02-12T04:46:16;102674.81;;;6.15;85.15
21555;BME280;10938;44.794;-0.676;2023-02-12T04:48:54;102678.31;;;6.16;85.17
21555;BME280;10938;44.794;-0.676;2023-02-12T04:51:20;102681.38;;;6.10;85.32
21555;BME280;10938;44.794;-0.676;2023-02-12T04:53:46;102690.19;;;5.99;86.96
21555;BME280;10938;44.794;-0.676;2023-02-12T04:56:12;102681.66;;;6.00;86.64
21555;BME280;10938;44.794;-0.676;2023-02-12T04:58:38;102680.56;;;5.97;86.98
21555;BME280;10938;44.794;-0.676;2023-02-12T05:01:04;102683.78;;;6.07;85.81
21555;BME280;10938;44.794;-0.676;2023-02-12T05:03:30;102683.09;;;6.10;86.17
21555;BME280;10938;44.794;-0.676;2023-02-12T05:05:55;102679.69;;;6.11;84.75
21555;BME280;10938;44.794;-0.676;2023-02-12T05:08:20;102685.50;;;6.07;85.53
21555;BME280;10938;44.794;-0.676;2023-02-12T05:10:46;102680.16;;;5.91;86.17
21555;BME280;10938;44.794;-0.676;2023-02-12T05:13:11;102692.41;;;5.80;86.94
21555;BME280;10938;44.794;-0.676;2023-02-12T05:15:40;102694.34;;;5.84;86.84
21555;BME280;10938;44.794;-0.676;2023-02-12T05:18:05;102687.41;;;5.83;86.18
21555;BME280;10938;44.794;-0.676;2023-02-12T05:20:30;102688.81;;;5.91;85.86
21555;BME280;10938;44.794;-0.676;2023-02-12T05:22:56;102692.91;;;5.88;86.01
21555;BME280;10938;44.794;-0.676;2023-02-12T05:25:21;102695.47;;;5.88;86.33
21555;BME280;10938;44.794;-0.676;2023-02-12T05:27:47;102695.41;;;5.86;87.21
21555;BME280;10938;44.794;-0.676;2023-02-12T05:30:13;102688.72;;;5.90;87.64
21555;BME280;10938;44.794;-0.676;2023-02-12T05:32:38;102698.97;;;5.88;88.51
21555;BME280;10938;44.794;-0.676;2023-02-12T05:35:04;102688.63;;;5.88;87.69
21555;BME280;10938;44.794;-0.676;2023-02-12T05:37:29;102691.50;;;5.80;86.67
21555;BME280;10938;44.794;-0.676;2023-02-12T05:39:55;102690.28;;;5.75;88.63
21555;BME280;10938;44.794;-0.676;2023-02-12T05:42:21;102701.03;;;5.67;89.59
21555;BME280;10938;44.794;-0.676;2023-02-12T05:44:46;102689.13;;;5.69;89.06
21555;BME280;10938;44.794;-0.676;2023-02-12T05:47:12;102699.75;;;5.74;88.10
21555;BME280;10938;44.794;-0.676;2023-02-12T05:49:37;102693.59;;;5.72;88.66
21555;BME280;10938;44.794;-0.676;2023-02-12T05:52:02;102687.44;;;5.70;89.02
21555;BME280;10938;44.794;-0.676;2023-02-12T05:54:28;102692.50;;;5.68;89.83
21555;BME280;10938;44.794;-0.676;2023-02-12T05:56:53;102692.31;;;5.65;90.47
21555;BME280;10938;44.794;-0.676;2023-02-12T05:59:21;102686.63;;;5.71;90.34
21555;BME280;10938;44.794;-0.676;2023-02-12T06:01:49;102684.03;;;5.71;91.53
21555;BME280;10938;44.794;-0.676;2023-02-12T06:04:23;102679.94;;;5.75;90.39
21555;BME280;10938;44.794;-0.676;2023-02-12T06:06:53;102693.19;;;5.66;90.07
21555;BME280;10938;44.794;-0.676;2023-02-12T06:09:20;102694.59;;;5.61;90.33
21555;BME280;10938;44.794;-0.676;2023-02-12T06:11:46;102682.66;;;5.63;89.65
21555;BME280;10938;44.794;-0.676;2023-02-12T06:14:14;102688.50;;;5.60;89.83
21555;BME280;10938;44.794;-0.676;2023-02-12T06:16:42;102687.63;;;5.60;89.26
21555;BME280;10938;44.794;-0.676;2023-02-12T06:19:08;102688.81;;;5.52;88.67
21555;BME280;10938;44.794;-0.676;2023-02-12T06:21:34;102692.50;;;5.42;89.88
21555;BME280;10938;44.794;-0.676;2023-02-12T06:23:59;102698.19;;;5.50;88.76
21555;BME280;10938;44.794;-0.676;2023-02-12T06:26:25;102692.59;;;5.44;90.38
21555;BME280;10938;44.794;-0.676;2023-02-12T06:28:50;102690.44;;;5.50;89.67
21555;BME280;10938;44.794;-0.676;2023-02-12T06:31:20;102696.28;;;5.47;89.05
21555;BME280;10938;44.794;-0.676;2023-02-12T06:33:46;102689.22;;;5.45;89.26
21555;BME280;10938;44.794;-0.676;2023-02-12T06:36:12;102690.44;;;5.50;89.27
21555;BME280;10938;44.794;-0.676;2023-02-12T06:38:37;102698.28;;;5.51;89.05
21555;BME280;10938;44.794;-0.676;2023-02-12T06:41:03;102690.81;;;5.56;88.54
21555;BME280;10938;44.794;-0.676;2023-02-12T06:43:29;102691.59;;;5.55;88.46
21555;BME280;10938;44.794;-0.676;2023-02-12T06:45:54;102688.75;;;5.50;88.18
21555;BME280;10938;44.794;-0.676;2023-02-12T06:48:20;102689.59;;;5.51;88.37
21555;BME280;10938;44.794;-0.676;2023-02-12T06:50:45;102689.81;;;5.28;91.58
21555;BME280;10938;44.794;-0.676;2023-02-12T06:53:11;102703.38;;;4.61;99.98
21555;BME280;10938;44.794;-0.676;2023-02-12T06:55:36;102696.16;;;4.68;98.58
21555;BME280;10938;44.794;-0.676;2023-02-12T06:58:02;102688.66;;;4.98;95.91
21555;BME280;10938;44.794;-0.676;2023-02-12T07:00:27;102692.69;;;5.19;93.56
21555;BME280;10938;44.794;-0.676;2023-02-12T07:02:54;102704.13;;;5.23;92.51
21555;BME280;10938;44.794;-0.676;2023-02-12T07:05:20;102691.78;;;5.18;94.70
21555;BME280;10938;44.794;-0.676;2023-02-12T07:07:45;102698.19;;;5.24;95.30
21555;BME280;10938;44.794;-0.676;2023-02-12T07:10:11;102703.16;;;5.34;93.81
21555;BME280;10938;44.794;-0.676;2023-02-12T07:12:36;102694.50;;;5.46;92.86
21555;BME280;10938;44.794;-0.676;2023-02-12T07:15:02;102687.44;;;5.57;92.67
21555;BME280;10938;44.794;-0.676;2023-02-12T07:17:28;102690.03;;;5.70;92.27
21555;BME280;10938;44.794;-0.676;2023-02-12T07:19:54;102690.31;;;5.61;96.94
21555;BME280;10938;44.794;-0.676;2023-02-12T07:22:20;102688.00;;;6.05;95.05
21555;BME280;10938;44.794;-0.676;2023-02-12T07:24:46;102702.69;;;6.19;95.09
21555;BME280;10938;44.794;-0.676;2023-02-12T07:27:12;102702.97;;;6.24;96.65
21555;BME280;10938;44.794;-0.676;2023-02-12T07:29:38;102696.56;;;6.60;93.41
21555;BME280;10938;44.794;-0.676;2023-02-12T07:32:04;102706.19;;;6.48;93.95
21555;BME280;10938;44.794;-0.676;2023-02-12T07:34:32;102710.63;;;6.78;92.94
21555;BME280;10938;44.794;-0.676;2023-02-12T07:36:57;102711.53;;;7.08;93.27
21555;BME280;10938;44.794;-0.676;2023-02-12T07:39:23;102720.06;;;7.20;92.63
21555;BME280;10938;44.794;-0.676;2023-02-12T07:41:48;102725.34;;;7.36;92.55
21555;BME280;10938;44.794;-0.676;2023-02-12T07:44:14;102721.53;;;7.75;90.32
21555;BME280;10938;44.794;-0.676;2023-02-12T07:49:07;102720.69;;;9.71;84.02
21555;BME280;10938;44.794;-0.676;2023-02-12T07:51:35;102721.94;;;11.31;77.18
21555;BME280;10938;44.794;-0.676;2023-02-12T07:54:02;102719.06;;;12.54;71.41
21555;BME280;10938;44.794;-0.676;2023-02-12T07:56:31;102708.44;;;13.22;68.59
21555;BME280;10938;44.794;-0.676;2023-02-12T07:59:12;102715.03;;;13.11;68.81
21555;BME280;10938;44.794;-0.676;2023-02-12T08:01:48;102719.59;;;12.46;70.76
21555;BME280;10938;44.794;-0.676;2023-02-12T08:04:16;102714.38;;;12.01;74.16
21555;BME280;10938;44.794;-0.676;2023-02-12T08:06:45;102723.50;;;11.26;78.59
21555;BME280;10938;44.794;-0.676;2023-02-12T08:09:14;102718.41;;;10.90;80.93
21555;BME280;10938;44.794;-0.676;2023-02-12T08:11:41;102727.22;;;11.12;80.14
21555;BME280;10938;44.794;-0.676;2023-02-12T08:14:08;102730.53;;;11.08;80.96
21555;BME280;10938;44.794;-0.676;2023-02-12T08:16:36;102730.66;;;11.11;81.06
21555;BME280;10938;44.794;-0.676;2023-02-12T08:19:03;102722.69;;;11.08;80.67
21555;BME280;10938;44.794;-0.676;2023-02-12T08:21:28;102726.09;;;11.26;78.79
21555;BME280;10938;44.794;-0.676;2023-02-12T08:23:55;102725.00;;;11.21;78.45
21555;BME280;10938;44.794;-0.676;2023-02-12T08:26:25;102721.78;;;10.49;80.96
21555;BME280;10938;44.794;-0.676;2023-02-12T08:31:26;102732.81;;;10.81;79.58
21555;BME280;10938;44.794;-0.676;2023-02-12T08:33:53;102733.25;;;11.11;78.65
21555;BME280;10938;44.794;-0.676;2023-02-12T08:36:21;102729.72;;;10.71;80.15
21555;BME280;10938;44.794;-0.676;2023-02-12T08:38:47;102732.00;;;11.22;78.17
21555;BME280;10938;44.794;-0.676;2023-02-12T08:41:17;102726.97;;;11.48;77.09
21555;BME280;10938;44.794;-0.676;2023-02-12T08:43:43;102736.09;;;11.78;76.02
21555;BME280;10938;44.794;-0.676;2023-02-12T08:46:10;102735.84;;;11.51;77.21
21555;BME280;10938;44.794;-0.676;2023-02-12T08:48:36;102737.91;;;11.79;76.73
21555;BME280;10938;44.794;-0.676;2023-02-12T08:51:10;102741.19;;;11.54;77.72
21555;BME280;10938;44.794;-0.676;2023-02-12T08:53:38;102733.94;;;11.26;79.63
21555;BME280;10938;44.794;-0.676;2023-02-12T08:56:04;102743.72;;;11.11;80.80
21555;BME280;10938;44.794;-0.676;2023-02-12T08:58:29;102742.91;;;10.36;86.07
21555;BME280;10938;44.794;-0.676;2023-02-12T09:00:55;102740.56;;;10.61;86.19
21555;BME280;10938;44.794;-0.676;2023-02-12T09:03:21;102733.91;;;10.48;85.99
21555;BME280;10938;44.794;-0.676;2023-02-12T09:05:47;102737.03;;;10.04;89.81
21555;BME280;10938;44.794;-0.676;2023-02-12T09:08:12;102739.00;;;10.45;88.89
21555;BME280;10938;44.794;-0.676;2023-02-12T09:10:41;102744.72;;;10.56;88.55
21555;BME280;10938;44.794;-0.676;2023-02-12T09:13:08;102744.03;;;10.60;89.13
21555;BME280;10938;44.794;-0.676;2023-02-12T09:15:42;102736.75;;;10.72;87.97
21555;BME280;10938;44.794;-0.676;2023-02-12T09:18:10;102739.41;;;10.54;90.02
21555;BME280;10938;44.794;-0.676;2023-02-12T09:20:43;102744.78;;;10.76;89.18
21555;BME280;10938;44.794;-0.676;2023-02-12T09:23:11;102748.41;;;10.61;89.41
21555;BME280;10938;44.794;-0.676;2023-02-12T09:25:41;102738.72;;;10.58;91.23
21555;BME280;10938;44.794;-0.676;2023-02-12T09:28:08;102733.50;;;10.77;90.22
21555;BME280;10938;44.794;-0.676;2023-02-12T09:30:35;102740.47;;;10.77;91.18
21555;BME280;10938;44.794;-0.676;2023-02-12T09:33:01;102733.59;;;10.41;92.21
21555;BME280;10938;44.794;-0.676;2023-02-12T09:35:26;102736.16;;;10.04;95.40
21555;BME280;10938;44.794;-0.676;2023-02-12T09:37:52;102738.09;;;10.25;94.91
21555;BME280;10938;44.794;-0.676;2023-02-12T09:40:22;102732.34;;;10.71;93.09
21555;BME280;10938;44.794;-0.676;2023-02-12T09:43:11;102733.81;;;11.04;91.34
21555;BME280;10938;44.794;-0.676;2023-02-12T09:45:49;102734.59;;;10.25;93.94
21555;BME280;10938;44.794;-0.676;2023-02-12T09:48:40;102729.78;;;9.97;96.58
21555;BME280;10938;44.794;-0.676;2023-02-12T09:51:08;102731.41;;;9.77;98.92
21555;BME280;10938;44.794;-0.676;2023-02-12T09:53:39;102737.41;;;10.12;96.95
21555;BME280;10938;44.794;-0.676;2023-02-12T09:56:13;102737.00;;;10.40;95.55
21555;BME280;10938;44.794;-0.676;2023-02-12T09:58:48;102735.13;;;10.00;97.41
21555;BME280;10938;44.794;-0.676;2023-02-12T10:01:18;102737.16;;;10.43;97.04
21555;BME280;10938;44.794;-0.676;2023-02-12T10:03:45;102738.22;;;10.11;98.41
21555;BME280;10938;44.794;-0.676;2023-02-12T10:06:40;102744.78;;;10.03;98.93
21555;BME280;10938;44.794;-0.676;2023-02-12T10:11:56;102732.28;;;9.78;100.00
21555;BME280;10938;44.794;-0.676;2023-02-12T10:14:33;102734.19;;;10.35;98.99
21555;BME280;10938;44.794;-0.676;2023-02-12T10:28:08;102718.06;;;10.82;96.73
21555;BME280;10938;44.794;-0.676;2023-02-12T10:31:20;102720.19;;;10.71;96.78
21555;BME280;10938;44.794;-0.676;2023-02-12T10:33:35;102711.75;;;10.96;95.93
21555;BME280;10938;44.794;-0.676;2023-02-12T10:38:35;102714.50;;;11.82;91.38
21555;BME280;10938;44.794;-0.676;2023-02-12T10:41:03;102709.75;;;12.16;89.93
21555;BME280;10938;44.794;-0.676;2023-02-12T10:43:29;102714.25;;;11.98;90.65
21555;BME280;10938;44.794;-0.676;2023-02-12T10:45:55;102717.69;;;11.33;92.34
21555;BME280;10938;44.794;-0.676;2023-02-12T10:48:24;102708.25;;;11.16;94.58
21555;BME280;10938;44.794;-0.676;2023-02-12T10:53:42;102701.50;;;11.42;94.91
21555;BME280;10938;44.794;-0.676;2023-02-12T10:58:54;102695.72;;;11.49;93.74
21555;BME280;10938;44.794;-0.676;2023-02-12T11:01:33;102697.66;;;11.74;93.00
21555;BME280;10938;44.794;-0.676;2023-02-12T11:06:58;102700.72;;;12.08;91.44
21555;BME280;10938;44.794;-0.676;2023-02-12T11:09:35;102681.66;;;12.57;89.67
21555;BME280;10938;44.794;-0.676;2023-02-12T11:12:01;102696.94;;;12.00;91.30
21555;BME280;10938;44.794;-0.676;2023-02-12T11:14:28;102684.13;;;11.84;93.17
21555;BME280;10938;44.794;-0.676;2023-02-12T11:16:57;102687.91;;;11.92;93.70
21555;BME280;10938;44.794;-0.676;2023-02-12T11:19:29;102679.19;;;12.61;89.16
21555;BME280;10938;44.794;-0.676;2023-02-12T11:22:07;102674.91;;;11.94;92.38
21555;BME280;10938;44.794;-0.676;2023-02-12T11:24:35;102670.66;;;11.75;93.82
21555;BME280;10938;44.794;-0.676;2023-02-12T11:27:28;102661.94;;;12.43;91.08
21555;BME280;10938;44.794;-0.676;2023-02-12T11:32:35;102663.16;;;12.28;90.87
21555;BME280;10938;44.794;-0.676;2023-02-12T11:35:05;102658.03;;;12.31;90.77
21555;BME280;10938;44.794;-0.676;2023-02-12T11:37:32;102653.38;;;12.47;89.74
21555;BME280;10938;44.794;-0.676;2023-02-12T11:40:00;102650.66;;;12.69;87.73
21555;BME280;10938;44.794;-0.676;2023-02-12T11:42:31;102649.47;;;12.84;87.79
21555;BME280;10938;44.794;-0.676;2023-02-12T11:44:59;102649.84;;;12.95;87.18
21555;BME280;10938;44.794;-0.676;2023-02-12T11:47:31;102651.28;;;12.62;87.93
21555;BME280;10938;44.794;-0.676;2023-02-12T11:50:43;102641.25;;;12.99;86.82
21555;BME280;10938;44.794;-0.676;2023-02-12T11:52:48;102634.78;;;13.67;83.83
21555;BME280;10938;44.794;-0.676;2023-02-12T11:55:24;102643.88;;;12.74;86.73
21555;BME280;10938;44.794;-0.676;2023-02-12T11:57:52;102638.84;;;13.05;85.41
21555;BME280;10938;44.794;-0.676;2023-02-12T12:00:22;102626.31;;;13.20;85.97
21555;BME280;10938;44.794;-0.676;2023-02-12T12:02:56;102622.44;;;13.36;83.37
21555;BME280;10938;44.794;-0.676;2023-02-12T12:05:30;102613.78;;;13.95;81.50
21555;BME280;10938;44.794;-0.676;2023-02-12T12:08:03;102614.66;;;13.94;81.57
21555;BME280;10938;44.794;-0.676;2023-02-12T12:10:45;102610.13;;;13.08;84.36
21555;BME280;10938;44.794;-0.676;2023-02-12T12:13:16;102615.22;;;13.84;81.80
21555;BME280;10938;44.794;-0.676;2023-02-12T12:15:48;102601.06;;;14.07;80.10
21555;BME280;10938;44.794;-0.676;2023-02-12T12:18:53;102611.00;;;13.89;79.00
21555;BME280;10938;44.794;-0.676;2023-02-12T12:24:21;102600.09;;;13.75;79.56
21555;BME280;10938;44.794;-0.676;2023-02-12T12:26:55;102586.66;;;13.93;79.33
21555;BME280;10938;44.794;-0.676;2023-02-12T12:32:13;102582.47;;;14.00;78.11
21555;BME280;10938;44.794;-0.676;2023-02-12T12:34:40;102581.16;;;13.27;79.18
21555;BME280;10938;44.794;-0.676;2023-02-12T12:39:45;102580.13;;;13.51;77.91
21555;BME280;10938;44.794;-0.676;2023-02-12T12:42:56;102586.19;;;14.08;77.04
21555;BME280;10938;44.794;-0.676;2023-02-12T12:45:51;102575.88;;;14.76;74.13
21555;BME280;10938;44.794;-0.676;2023-02-12T13:11:05;102563.03;;;14.88;69.53
21555;BME280;10938;44.794;-0.676;2023-02-12T13:13:38;102566.59;;;14.56;70.30
21555;BME280;10938;44.794;-0.676;2023-02-12T13:19:07;102565.13;;;14.67;70.54
21555;BME280;10938;44.794;-0.676;2023-02-12T13:21:58;102560.84;;;14.38;70.22
21555;BME280;10938;44.794;-0.676;2023-02-12T13:24:32;102557.63;;;15.18;67.80
21555;BME280;10938;44.794;-0.676;2023-02-12T13:27:14;102559.75;;;14.63;66.79
21555;BME280;10938;44.794;-0.676;2023-02-12T13:29:45;102560.59;;;14.96;66.18
21555;BME280;10938;44.794;-0.676;2023-02-12T13:34:42;102553.28;;;14.83;66.76
21555;BME280;10938;44.794;-0.676;2023-02-12T13:37:18;102542.84;;;15.59;63.97
21555;BME280;10938;44.794;-0.676;2023-02-12T13:39:47;102548.59;;;14.71;65.43
21555;BME280;10938;44.794;-0.676;2023-02-12T13:45:23;102527.44;;;15.38;64.75
21555;BME280;10938;44.794;-0.676;2023-02-12T13:50:53;102538.72;;;14.61;65.29
21555;BME280;10938;44.794;-0.676;2023-02-12T13:59:00;102517.81;;;15.00;65.01
21555;BME280;10938;44.794;-0.676;2023-02-12T14:09:39;102518.03;;;15.09;64.86
21555;BME280;10938;44.794;-0.676;2023-02-12T14:12:12;102521.88;;;15.25;62.23
21555;BME280;10938;44.794;-0.676;2023-02-12T14:14:43;102519.41;;;14.59;62.71
21555;BME280;10938;44.794;-0.676;2023-02-12T14:27:45;102513.16;;;15.26;60.14
21555;BME280;10938;44.794;-0.676;2023-02-12T14:37:51;102510.91;;;15.83;57.90
21555;BME280;10938;44.794;-0.676;2023-02-12T14:42:59;102511.16;;;15.95;58.19
21555;BME280;10938;44.794;-0.676;2023-02-12T14:45:33;102509.44;;;15.97;56.92
21555;BME280;10938;44.794;-0.676;2023-02-12T14:48:00;102514.19;;;16.61;56.15
21555;BME280;10938;44.794;-0.676;2023-02-12T14:50:44;102505.81;;;16.37;56.00
21555;BME280;10938;44.794;-0.676;2023-02-12T14:53:30;102509.44;;;15.97;57.02
21555;BME280;10938;44.794;-0.676;2023-02-12T14:55:57;102508.53;;;16.92;55.32
21555;BME280;10938;44.794;-0.676;2023-02-12T14:58:24;102513.06;;;16.52;56.07
21555;BME280;10938;44.794;-0.676;2023-02-12T15:00:54;102512.19;;;16.03;56.06
21555;BME280;10938;44.794;-0.676;2023-02-12T15:03:50;102518.47;;;16.56;55.03
21555;BME280;10938;44.794;-0.676;2023-02-12T15:06:31;102506.38;;;15.74;57.33
21555;BME280;10938;44.794;-0.676;2023-02-12T15:09:12;102499.34;;;16.20;55.75
21555;BME280;10938;44.794;-0.676;2023-02-12T15:11:51;102501.78;;;16.56;55.66
21555;BME280;10938;44.794;-0.676;2023-02-12T15:14:23;102507.31;;;16.71;53.80
21555;BME280;10938;44.794;-0.676;2023-02-12T15:19:43;102510.97;;;15.86;54.66
21555;BME280;10938;44.794;-0.676;2023-02-12T15:24:47;102509.19;;;16.78;52.16
21555;BME280;10938;44.794;-0.676;2023-02-12T15:27:14;102512.53;;;16.68;53.81
21555;BME280;10938;44.794;-0.676;2023-02-12T15:29:51;102507.00;;;16.54;53.43
21555;BME280;10938;44.794;-0.676;2023-02-12T15:32:24;102505.94;;;16.44;53.71
21555;BME280;10938;44.794;-0.676;2023-02-12T15:34:52;102494.06;;;16.66;52.77